Portada
METAR-TAF:

METAR-TAF

Aeroports :

Gibraltar, Gibraltar

latitud: 36-09N, longitud: 005-21W, altitud: 5 m

Observació

L'informe es va fer fa 1 hora i 8 minuts, a les 03:50 UTC
Vent 6 kt del Oest/Sud-Oest
Temperatura 14°C
Humitat 82%
Pressió 1016 hPa
Visibilitat 10 km o més

METAR: LXGB 210350Z AUTO 25006KT 9999 // NCD 14/11 Q1016

Hora: 06:58 (04:58 UTC)

Pronòstic

L'informe es va fer fa 12 hores i 30 minuts, a les 16:28 UTC
Pronòstic vàlid del 20 a les 18 UTC al 20 a les 22 UTC
Vent 10 kt del Oest
Visibilitat 10 km o més
sense núvols per sota de 1500 mi sense presència de cumulonimbus.

TAF: LXGB 201628Z 2018/2022 26010KT CAVOK

Observacions i pronòstics meteorològics de més de 4000 aeroports (METAR i TAF).

Les estacions disponibles són els punts grocs i vermells al mapa.

Posi el ratolí al punt desitjat per veure el nom de l'estació.

Feu clic per veure les observacions i els pronòstics meteorològics.

Per canviar el mapa: feu clic els botons verds amb una creu de color negre per apropar; al botó verd amb un guió per allunyar la imatge; o en les fletxes verdes per a mapes adjacents.


METAR-TAF: